Time;durP1;ratioP1;P1;durP2;ratioP2;P2;SDS_P1;SDS_P2;PMS_P1;PMS_P2;Temp;Humidity;BMP_temperature;BMP_pressure;BME280_temperature;BME280_humidity;BME280_pressure;Samples;Min_cycle;Max_cycle;Signal;HPM_P1;HPM_P2
2022/12/13 00:01:57;;;;;;;25.40;10.93;;;;;;;-144.47;92.51;62737.69;4992346;28;20023;-67
2022/12/13 00:04:23;;;;;;;28.92;12.32;;;;;;;-144.47;92.42;62747.63;4992511;28;20080;-65
2022/12/13 00:06:49;;;;;;;26.70;11.48;;;;;;;-144.47;92.76;62749.63;4991373;28;20022;-67
2022/12/13 00:09:17;;;;;;;24.73;11.02;;;;;;;-144.47;92.63;62781.50;4991930;28;20193;-64
2022/12/13 00:11:43;;;;;;;26.45;11.80;;;;;;;-144.47;92.79;62777.50;4985936;28;20157;-66
2022/12/13 00:14:10;;;;;;;26.15;11.82;;;;;;;-144.47;93.06;62819.34;4986280;28;20311;-68
2022/12/13 00:16:35;;;;;;;25.55;10.98;;;;;;;-144.47;93.12;62807.41;4986747;28;20027;-67
2022/12/13 00:19:01;;;;;;;24.48;11.93;;;;;;;-144.47;92.76;62843.25;4985652;28;20036;-67
2022/12/13 00:21:32;;;;;;;21.38;10.82;;;;;;;-144.47;92.74;62845.25;4978718;28;20181;-66
2022/12/13 00:23:59;;;;;;;33.58;12.15;;;;;;;-144.47;92.75;62845.25;4992583;28;20026;-67
2022/12/13 00:26:29;;;;;;;28.20;10.38;;;;;;;-144.47;92.72;62871.13;4989544;28;20038;-64
2022/12/13 00:28:57;;;;;;;24.30;11.18;;;;;;;-144.47;92.58;62845.25;4980019;28;20030;-65
2022/12/13 00:31:24;;;;;;;28.10;11.95;;;;;;;-144.47;92.56;62855.19;4981974;28;20022;-68
2022/12/13 00:33:50;;;;;;;34.13;12.45;;;;;;;-144.47;92.71;62867.16;4988167;28;20026;-67
2022/12/13 00:36:15;;;;;;;26.63;12.10;;;;;;;-144.47;92.90;62897.03;4990598;28;20049;-65
2022/12/13 00:38:41;;;;;;;27.38;11.43;;;;;;;-144.47;92.99;62895.03;4992015;28;20033;-67
2022/12/13 00:41:12;;;;;;;28.60;11.50;;;;;;;-144.47;92.96;62934.88;4992713;28;20384;-65
2022/12/13 00:43:37;;;;;;;21.05;11.02;;;;;;;-144.47;92.98;62932.88;4992751;28;20022;-67
2022/12/13 00:46:03;;;;;;;30.30;10.73;;;;;;;-144.47;92.90;62958.78;4985955;28;20513;-66
2022/12/13 00:48:29;;;;;;;24.50;11.40;;;;;;;-144.47;92.93;62926.91;4982444;28;20039;-66
2022/12/13 00:50:54;;;;;;;32.60;11.95;;;;;;;-144.47;92.78;62946.84;4982386;28;20444;-65
2022/12/13 00:53:19;;;;;;;27.65;12.02;;;;;;;-144.47;92.43;62954.81;4990540;28;20056;-66
2022/12/13 00:55:45;;;;;;;28.38;12.38;;;;;;;-144.47;92.21;62958.78;4991719;28;20031;-65
2022/12/13 00:58:10;;;;;;;18.40;8.77;;;;;;;-144.47;92.31;62954.81;4991402;28;20129;-68
2022/12/13 01:00:35;;;;;;;31.17;12.52;;;;;;;-144.47;92.40;62964.75;4993661;28;20033;-67
2022/12/13 01:03:19;;;;;;;29.33;10.70;;;;;;;-144.47;92.41;62980.69;4993460;28;20072;-67
2022/12/13 01:05:45;;;;;;;23.30;11.45;;;;;;;-144.47;92.44;63020.53;4994486;28;20053;-67
2022/12/13 01:08:10;;;;;;;25.65;10.02;;;;;;;-144.47;92.55;63010.59;4990231;28;20034;-66
2022/12/13 01:10:36;;;;;;;26.65;13.25;;;;;;;-144.47;92.53;63016.56;4992387;28;20034;-63
2022/12/13 01:13:01;;;;;;;32.58;11.95;;;;;;;-144.47;92.52;63032.50;4991269;28;20018;-68
2022/12/13 01:15:27;;;;;;;34.97;11.25;;;;;;;-144.47;92.62;63044.44;4975034;28;20029;-65
2022/12/13 01:17:52;;;;;;;22.80;10.30;;;;;;;-144.47;92.63;63040.47;4985452;28;20116;-67
2022/12/13 01:20:17;;;;;;;37.03;10.45;;;;;;;-144.47;92.88;63074.34;4991157;28;20123;-68
2022/12/13 01:22:43;;;;;;;28.85;12.25;;;;;;;-144.47;92.46;63066.38;4990321;28;20488;-67
2022/12/13 01:25:08;;;;;;;31.75;11.85;;;;;;;-144.47;92.24;63074.34;4991316;28;20049;-67
2022/12/13 01:27:34;;;;;;;28.52;11.50;;;;;;;-144.47;92.17;63080.31;4990702;28;20053;-68
2022/12/13 01:29:59;;;;;;;27.88;11.20;;;;;;;-144.47;92.19;63076.31;4990180;28;20562;-67
2022/12/13 01:32:25;;;;;;;22.17;9.48;;;;;;;-144.47;91.86;63074.34;4992479;28;20022;-67
2022/12/13 01:34:50;;;;;;;29.33;11.07;;;;;;;-144.47;92.02;63060.38;4992255;28;20068;-68
2022/12/13 01:37:16;;;;;;;30.65;10.23;;;;;;;-144.47;91.92;63032.50;4991706;28;20061;-66
2022/12/13 01:39:41;;;;;;;27.58;8.93;;;;;;;-144.47;91.84;63066.38;4992151;28;20081;-67
2022/12/13 01:42:12;;;;;;;22.10;8.75;;;;;;;-144.47;91.71;63096.25;4992837;28;20022;-64
2022/12/13 01:44:59;;;;;;;29.65;10.98;;;;;;;-144.47;91.88;63110.19;4993422;28;20053;-64
2022/12/13 01:47:45;;;;;;;21.08;10.32;;;;;;;-144.47;91.88;63152.03;4989875;28;20496;-68
2022/12/13 01:50:19;;;;;;;23.30;9.13;;;;;;;-144.47;91.92;63177.91;4985559;28;20496;-66
2022/12/13 01:52:46;;;;;;;22.65;9.63;;;;;;;-144.47;91.61;63158.00;4990420;28;20055;-63
2022/12/13 01:55:14;;;;;;;25.13;10.38;;;;;;;-144.47;91.73;63158.00;4993704;28;20023;-67
2022/12/13 01:57:43;;;;;;;30.25;10.60;;;;;;;-144.47;91.39;63152.03;4992039;28;20100;-66
2022/12/13 02:00:09;;;;;;;20.30;9.30;;;;;;;-144.47;91.77;63158.00;4993986;28;20047;-67
2022/12/13 02:02:35;;;;;;;29.15;9.93;;;;;;;-144.47;91.86;63179.91;4993434;28;20026;-64
2022/12/13 02:05:12;;;;;;;19.65;8.63;;;;;;;-144.47;92.12;63213.78;4994384;28;20019;-68
2022/12/13 02:07:40;;;;;;;21.88;10.15;;;;;;;-144.47;92.04;63207.81;4992189;28;20030;-66
2022/12/13 02:10:08;;;;;;;28.38;11.00;;;;;;;-144.47;92.04;63223.75;4994416;28;20552;-66
2022/12/13 02:12:36;;;;;;;27.92;10.50;;;;;;;-144.47;92.36;63247.66;4993957;28;20500;-68
2022/12/13 02:15:10;;;;;;;22.95;9.55;;;;;;;-144.47;91.93;63233.69;4985503;28;20106;-67
2022/12/13 02:17:57;;;;;;;30.13;11.25;;;;;;;-144.47;92.09;63263.59;4986795;28;20026;-67
2022/12/13 02:20:40;;;;;;;23.33;9.57;;;;;;;-144.47;92.03;63307.41;4986821;28;20054;-66
2022/12/13 02:23:30;;;;;;;27.00;10.65;;;;;;;-144.47;91.96;63315.38;4991381;28;20046;-68
2022/12/13 02:26:39;;;;;;;27.38;10.85;;;;;;;-144.47;92.04;63347.25;4994993;28;20022;-66
2022/12/13 02:29:35;;;;;;;33.53;11.48;;;;;;;-144.47;92.14;63375.16;4994901;28;20034;-67
2022/12/13 02:32:05;;;;;;;25.90;9.80;;;;;;;-144.47;92.14;63397.06;4992602;28;20082;-66
2022/12/13 02:34:54;;;;;;;30.88;10.95;;;;;;;-144.47;92.27;63420.97;4994638;28;20026;-67
2022/12/13 02:37:26;;;;;;;34.00;11.02;;;;;;;-144.47;92.46;63450.88;4989248;28;20073;-65
2022/12/13 02:40:02;;;;;;;23.60;9.00;;;;;;;-144.47;92.51;63446.88;4993965;28;20034;-63
2022/12/13 02:42:36;;;;;;;27.20;9.02;;;;;;;-144.47;92.52;63432.94;4992957;28;20026;-66
2022/12/13 02:45:08;;;;;;;30.17;9.95;;;;;;;-144.47;92.56;63450.88;4994384;28;20022;-66
2022/12/13 02:47:36;;;;;;;22.15;9.90;;;;;;;-144.47;92.49;63448.88;4994270;28;20388;-65
2022/12/13 02:50:06;;;;;;;17.73;8.80;;;;;;;-144.47;92.77;63456.84;4993604;28;20026;-65
2022/12/13 02:52:33;;;;;;;25.75;9.38;;;;;;;-144.47;93.35;63488.72;4994580;28;20264;-68
2022/12/13 02:54:58;;;;;;;27.77;10.40;;;;;;;-144.47;93.12;63530.56;4994098;28;20031;-68
2022/12/13 02:57:28;;;;;;;25.30;10.00;;;;;;;-144.47;92.78;63474.78;4994070;28;20033;-66
2022/12/13 02:59:55;;;;;;;19.55;9.50;;;;;;;-144.47;92.80;63492.69;4994272;28;20117;-65
2022/12/13 03:02:38;;;;;;;30.13;10.57;;;;;;;-144.47;92.56;63502.66;4994753;28;20388;-67
2022/12/13 03:08:09;;;;;;;18.92;9.85;;;;;;;-144.47;92.83;63556.47;4992135;28;20122;-64
2022/12/13 03:10:49;;;;;;;25.42;11.00;;;;;;;-144.47;93.19;63590.34;4990356;28;20404;-68
2022/12/13 03:13:36;;;;;;;28.38;9.23;;;;;;;-144.47;92.95;63534.53;4993550;28;20022;-65
2022/12/13 03:16:12;;;;;;;20.40;9.15;;;;;;;-144.47;92.48;63554.47;4981743;28;20647;-66
2022/12/13 03:18:39;;;;;;;20.13;9.25;;;;;;;-144.47;92.28;63546.50;4988902;28;20138;-66
2022/12/13 03:21:08;;;;;;;20.25;8.60;;;;;;;-144.47;92.19;63554.47;4993283;28;20153;-70
2022/12/13 03:23:34;;;;;;;20.35;10.00;;;;;;;-144.47;91.98;63522.59;4988150;28;20046;-67
2022/12/13 03:26:14;;;;;;;29.27;9.88;;;;;;;-144.47;91.99;63550.47;4993138;28;20060;-64
2022/12/13 03:28:40;;;;;;;18.02;9.05;;;;;;;-144.47;92.05;63542.50;5010239;22;20049;-66
2022/12/13 03:31:06;;;;;;;20.02;9.95;;;;;;;-144.47;91.95;63558.44;5010724;28;20413;-66
2022/12/13 03:33:32;;;;;;;28.48;11.63;;;;;;;-144.47;91.97;63552.47;5008455;28;20030;-67
2022/12/13 03:35:58;;;;;;;29.15;10.73;;;;;;;-144.47;91.92;63602.28;5010781;28;20025;-68
2022/12/13 03:38:24;;;;;;;39.55;10.95;;;;;;;-144.47;91.94;63558.44;5003819;28;20176;-65
2022/12/13 03:40:53;;;;;;;28.17;9.68;;;;;;;-144.47;91.94;63562.44;4990980;28;20029;-64
2022/12/13 03:43:18;;;;;;;18.15;8.60;;;;;;;-144.47;91.84;63554.47;4987923;28;20037;-68
2022/12/13 03:45:44;;;;;;;27.25;10.63;;;;;;;-144.47;91.73;63576.38;4993239;28;20519;-65
2022/12/13 03:48:09;;;;;;;23.90;9.68;;;;;;;-144.47;91.70;63550.47;4993793;28;20063;-68
2022/12/13 03:50:34;;;;;;;21.33;10.45;;;;;;;-144.47;91.68;63576.38;4991783;28;20026;-66
2022/12/13 03:53:01;;;;;;;31.42;9.55;;;;;;;-144.47;91.58;63546.50;4991024;28;20097;-65
2022/12/13 03:55:27;;;;;;;23.75;10.48;;;;;;;-144.47;91.63;63546.50;4993022;28;20388;-68
2022/12/13 03:57:52;;;;;;;23.40;9.88;;;;;;;-144.47;91.64;63590.34;4990506;28;20133;-64
2022/12/13 04:00:18;;;;;;;16.38;7.20;;;;;;;-144.47;91.65;63618.22;4990273;28;20572;-66
2022/12/13 04:02:43;;;;;;;25.90;9.40;;;;;;;-144.47;91.75;63626.19;4990417;28;20018;-65
2022/12/13 04:05:08;;;;;;;39.45;11.07;;;;;;;-144.47;91.84;63614.25;4990526;28;20125;-68
2022/12/13 04:07:34;;;;;;;27.83;10.68;;;;;;;-144.47;91.76;63616.22;4995346;28;20491;-67
2022/12/13 04:09:59;;;;;;;19.55;8.45;;;;;;;-144.47;91.84;63662.06;4990822;28;20108;-64
2022/12/13 04:15:09;;;;;;;24.38;9.50;;;;;;;-144.47;91.92;63697.94;4987504;28;20060;-70
2022/12/13 04:17:34;;;;;;;32.30;10.07;;;;;;;-144.47;91.96;63691.94;4989586;28;20427;-65
2022/12/13 04:20:00;;;;;;;18.35;9.40;;;;;;;-144.47;91.82;63717.84;4990306;28;20027;-67
2022/12/13 04:22:25;;;;;;;23.90;9.23;;;;;;;-144.47;92.21;63733.78;4990918;28;20057;-68
2022/12/13 04:24:50;;;;;;;26.08;9.93;;;;;;;-144.47;92.12;63717.84;4997970;28;20022;-65
2022/12/13 04:27:16;;;;;;;23.00;9.57;;;;;;;-144.47;92.42;63755.72;4990140;28;20026;-68
2022/12/13 04:29:41;;;;;;;19.75;10.48;;;;;;;-144.47;92.13;63713.88;4989918;28;20169;-65
2022/12/13 04:32:06;;;;;;;20.10;8.35;;;;;;;-144.47;91.66;63719.84;4989760;28;20154;-66
2022/12/13 04:34:32;;;;;;;18.63;7.88;;;;;;;-144.47;91.62;63715.84;4989726;28;20523;-68
2022/12/13 04:36:58;;;;;;;21.58;9.55;;;;;;;-144.47;91.88;63743.75;4989371;28;20443;-68
2022/12/13 04:39:23;;;;;;;26.52;11.77;;;;;;;-144.47;91.88;63765.66;4989477;28;20420;-67
2022/12/13 04:41:50;;;;;;;15.15;8.23;;;;;;;-144.47;92.11;63787.59;4988173;28;20029;-67
2022/12/13 04:44:16;;;;;;;21.90;9.77;;;;;;;-144.47;91.92;63713.88;4989273;28;20045;-70
2022/12/13 04:46:41;;;;;;;38.30;11.98;;;;;;;-144.47;91.67;63753.72;4988655;28;20030;-67
2022/12/13 04:49:07;;;;;;;22.15;10.45;;;;;;;-144.47;91.58;63727.81;4988846;28;20046;-67
2022/12/13 04:51:32;;;;;;;52.22;12.48;;;;;;;-144.47;91.77;63725.81;4989220;28;20040;-66
2022/12/13 04:53:58;;;;;;;43.88;9.80;;;;;;;-144.47;91.54;63783.59;4989652;28;20026;-66
2022/12/13 04:56:23;;;;;;;24.45;11.07;;;;;;;-144.47;91.98;63821.47;4989292;28;20019;-67
2022/12/13 04:58:48;;;;;;;19.63;8.20;;;;;;;-144.47;91.70;63783.59;4989260;28;20466;-68
2022/12/13 05:01:14;;;;;;;21.05;9.70;;;;;;;-144.47;91.95;63773.66;4989684;28;20341;-69
2022/12/13 05:03:39;;;;;;;32.17;10.98;;;;;;;-144.47;91.92;63787.59;4989628;28;20089;-65
2022/12/13 05:06:10;;;;;;;21.50;9.20;;;;;;;-144.47;92.04;63853.34;4989006;28;20536;-67
2022/12/13 05:08:36;;;;;;;17.58;8.10;;;;;;;-144.47;92.12;63851.34;4998872;28;20054;-67
2022/12/13 05:11:03;;;;;;;28.50;9.73;;;;;;;-144.47;91.96;63841.38;4988773;28;20034;-66
2022/12/13 05:13:28;;;;;;;20.25;9.45;;;;;;;-144.47;91.96;63851.34;4987568;28;20082;-67
2022/12/13 05:16:05;;;;;;;19.77;10.10;;;;;;;-144.47;92.33;63929.06;4987408;28;20022;-68
2022/12/13 05:18:31;;;;;;;32.60;11.65;;;;;;;-144.47;92.56;63941.03;4988864;28;20043;-67
2022/12/13 05:21:04;;;;;;;24.08;10.43;;;;;;;-144.47;92.77;63949.00;4988588;28;20022;-68
2022/12/13 05:23:30;;;;;;;23.48;8.15;;;;;;;-144.47;92.71;63966.94;4991621;28;20064;-67
2022/12/13 05:25:56;;;;;;;26.02;9.65;;;;;;;-144.47;92.56;63964.94;4993706;28;20113;-66
2022/12/13 05:28:24;;;;;;;37.40;11.32;;;;;;;-144.47;92.09;63941.03;4987627;28;20038;-67
2022/12/13 05:30:50;;;;;;;16.23;7.55;;;;;;;-144.47;91.75;63905.16;4988307;28;20119;-68
2022/12/13 05:33:15;;;;;;;24.02;9.27;;;;;;;-144.47;91.27;63909.13;4988846;28;20546;-65
2022/12/13 05:35:40;;;;;;;20.38;9.75;;;;;;;-144.47;91.46;63865.31;4986954;28;20026;-67
2022/12/13 05:38:06;;;;;;;30.65;9.27;;;;;;;-144.47;91.01;63891.19;4987116;28;20455;-67
2022/12/13 05:40:31;;;;;;;23.05;9.20;;;;;;;-144.47;91.25;63909.13;4987642;28;20026;-65
2022/12/13 05:42:57;;;;;;;23.85;10.65;;;;;;;-144.47;91.26;63895.19;4989049;28;20044;-64
2022/12/13 05:45:23;;;;;;;31.75;8.60;;;;;;;-144.47;91.68;63931.06;4988652;28;20049;-64
2022/12/13 05:47:48;;;;;;;18.55;9.32;;;;;;;-144.47;91.87;63947.00;4988294;28;20046;-67
2022/12/13 05:50:15;;;;;;;24.63;8.63;;;;;;;-144.47;91.96;63960.94;4988900;28;20034;-68
2022/12/13 05:52:44;;;;;;;33.50;11.13;;;;;;;-144.47;92.04;63972.91;4988177;28;20104;-67
2022/12/13 05:55:10;;;;;;;21.48;9.05;;;;;;;-144.47;91.59;63974.91;4989752;28;20038;-65
2022/12/13 05:57:36;;;;;;;20.95;9.93;;;;;;;-144.47;91.01;63889.22;4987589;28;20041;-66
2022/12/13 06:00:04;;;;;;;15.60;8.38;;;;;;;-144.47;91.32;63958.97;4988340;28;20770;-64
2022/12/13 06:02:29;;;;;;;19.60;8.00;;;;;;;-144.47;92.05;64020.72;4988560;28;20493;-66
2022/12/13 06:04:54;;;;;;;27.35;10.60;;;;;;;-144.47;92.21;64066.56;4987579;28;20032;-67
2022/12/13 06:07:20;;;;;;;21.75;9.75;;;;;;;-144.47;92.34;64052.59;4998937;28;20034;-68
2022/12/13 06:09:45;;;;;;;33.85;14.57;;;;;;;-144.47;92.43;64086.50;4989074;28;20030;-67
2022/12/13 06:12:10;;;;;;;36.75;14.15;;;;;;;-144.47;92.55;64108.41;4987652;28;20088;-69
2022/12/13 06:14:36;;;;;;;20.30;11.23;;;;;;;-144.47;92.54;64128.34;4983605;28;20777;-68
2022/12/13 06:17:02;;;;;;;24.15;9.05;;;;;;;-144.47;92.59;64068.56;4987414;28;20049;-66
2022/12/13 06:19:28;;;;;;;22.05;9.70;;;;;;;-144.47;92.41;64088.47;4987712;28;20030;-67
2022/12/13 06:21:54;;;;;;;30.95;8.82;;;;;;;-144.47;92.64;64152.25;4989744;28;20022;-66
2022/12/13 06:24:21;;;;;;;21.17;10.63;;;;;;;-144.47;92.36;64154.25;4988589;28;20041;-66
2022/12/13 06:26:48;;;;;;;22.63;9.23;;;;;;;-144.47;92.23;64110.41;4987686;28;20045;-71
2022/12/13 06:29:19;;;;;;;20.88;8.60;;;;;;;-144.47;92.45;64142.28;4986653;28;20121;-67
2022/12/13 06:31:44;;;;;;;30.42;9.93;;;;;;;-144.47;92.46;64102.44;4987327;28;20034;-67
2022/12/13 06:34:09;;;;;;;25.92;10.93;;;;;;;-144.47;92.26;64108.41;4988716;28;20049;-69
2022/12/13 06:36:35;;;;;;;24.77;9.88;;;;;;;-144.47;92.39;64086.50;4988331;28;20036;-68
2022/12/13 06:39:06;;;;;;;21.08;9.27;;;;;;;-144.47;92.46;64058.59;4988891;28;20077;-68
2022/12/13 06:41:33;;;;;;;18.48;8.52;;;;;;;-144.47;92.29;64038.66;5002424;28;20061;-66
2022/12/13 06:43:58;;;;;;;19.80;9.32;;;;;;;-144.47;92.38;63966.94;4984073;28;20052;-70
2022/12/13 06:46:24;;;;;;;15.27;8.10;;;;;;;-144.47;92.55;63861.31;4993403;28;20042;-68
2022/12/13 06:48:51;;;;;;;20.90;8.75;;;;;;;-144.47;92.90;63727.81;4990814;28;20046;-68
2022/12/13 06:51:16;;;;;;;23.48;12.02;;;;;;;-144.47;93.04;63618.22;4989848;28;20038;-68
2022/12/13 06:53:42;;;;;;;59.22;17.42;;;;;;;-144.47;93.11;63464.81;4988655;28;20496;-69
2022/12/13 06:56:10;;;;;;;47.47;15.45;;;;;;;-144.47;93.34;63253.63;4983220;28;20059;-68
2022/12/13 06:58:35;;;;;;;46.50;15.75;;;;;;;-144.47;93.43;63092.25;4986502;28;20030;-65
2022/12/13 07:01:09;;;;;;;17.80;10.93;;;;;;;-144.47;93.13;62909.00;4992401;28;20116;-66
2022/12/13 07:03:35;;;;;;;32.60;12.98;;;;;;;-144.47;92.56;62763.56;4988382;28;20078;-67
2022/12/13 07:06:07;;;;;;;28.90;14.48;;;;;;;-144.47;92.77;62574.34;4985818;28;20415;-66
2022/12/13 07:08:34;;;;;;;49.03;15.82;;;;;;;-144.47;93.19;62389.09;4987961;28;20512;-67
2022/12/13 07:11:01;;;;;;;26.98;11.75;;;;;;;-144.47;93.46;62209.84;4995414;28;20578;-66
2022/12/13 07:13:26;;;;;;;25.15;12.07;;;;;;;-144.47;93.48;62018.66;4993049;28;20126;-67
2022/12/13 07:15:51;;;;;;;30.60;13.43;;;;;;;-144.47;93.63;61849.38;4995939;28;20088;-68
2022/12/13 07:18:17;;;;;;;25.98;12.05;;;;;;;-144.47;93.40;61684.09;4996727;28;20042;-68
2022/12/13 07:20:43;;;;;;;29.33;12.82;;;;;;;-144.47;92.78;61467.06;4998373;28;20446;-70
2022/12/13 07:23:09;;;;;;;27.67;12.80;;;;;;;-144.47;93.94;61313.72;4991635;28;20578;-66
2022/12/13 07:25:35;;;;;;;25.35;13.93;;;;;;;-144.47;95.85;61206.22;4989596;28;20099;-66
2022/12/13 07:28:03;;;;;;;35.30;15.65;;;;;;;-144.47;96.19;61106.66;4989359;28;20045;-68
2022/12/13 07:30:32;;;;;;;36.75;15.93;;;;;;;-144.47;94.09;60931.47;4996488;28;20042;-68
2022/12/13 07:32:57;;;;;;;40.35;14.70;;;;;;;-144.47;91.86;60712.47;4994830;28;20081;-65
2022/12/13 07:35:22;;;;;;;51.58;16.80;;;;;;;-144.47;90.66;60604.97;4991093;28;20041;-67
2022/12/13 07:37:48;;;;;;;35.70;14.05;;;;;;;-144.47;90.30;60533.31;4993912;28;20038;-65
2022/12/13 07:40:13;;;;;;;43.50;17.42;;;;;;;-144.47;89.63;60475.59;4991520;28;20415;-69
2022/12/13 07:42:39;;;;;;;34.72;13.50;;;;;;;-144.47;89.28;60348.19;4988681;28;20046;-68
2022/12/13 07:45:04;;;;;;;24.35;9.18;;;;;;;-144.47;90.04;60401.94;4991836;28;20060;-66
2022/12/13 07:47:31;;;;;;;21.35;8.65;;;;;;;-144.47;90.28;60346.19;4991339;28;20041;-70
2022/12/13 07:49:57;;;;;;;23.95;11.27;;;;;;;-144.47;90.59;60296.44;4989656;28;20062;-68
2022/12/13 07:52:22;;;;;;;34.97;10.57;;;;;;;-144.47;90.72;60278.50;4991203;28;20088;-69
2022/12/13 07:54:48;;;;;;;20.80;9.23;;;;;;;-144.47;90.62;60260.59;4990507;28;20507;-68
2022/12/13 07:57:13;;;;;;;21.80;9.05;;;;;;;-144.47;90.91;60236.72;4989935;28;20125;-64
2022/12/13 07:59:38;;;;;;;24.02;8.75;;;;;;;-144.47;90.97;60228.75;4991978;28;20065;-68
2022/12/13 08:02:06;;;;;;;18.15;7.88;;;;;;;-144.47;91.04;60202.88;4991908;28;20023;-66
2022/12/13 08:04:31;;;;;;;19.70;9.40;;;;;;;-144.47;90.97;60194.91;4991136;28;20365;-67
2022/12/13 08:06:56;;;;;;;33.58;12.48;;;;;;;-144.47;90.97;60167.06;4987720;28;20029;-68
2022/12/13 08:09:22;;;;;;;21.67;10.40;;;;;;;-144.47;91.07;60173.03;4990001;28;20077;-66
2022/12/13 08:11:48;;;;;;;30.23;10.60;;;;;;;-144.47;90.96;60139.19;4989936;28;20022;-65
2022/12/13 08:14:13;;;;;;;18.90;9.05;;;;;;;-144.47;90.46;60107.34;4988791;28;20060;-68
2022/12/13 08:16:38;;;;;;;35.35;10.38;;;;;;;-144.47;90.34;60137.19;4990037;28;20040;-67
2022/12/13 08:19:04;;;;;;;32.60;9.65;;;;;;;-144.47;90.23;60065.53;4990847;28;20030;-66
2022/12/13 08:21:34;;;;;;;17.73;7.95;;;;;;;-144.47;89.93;60067.53;4988988;28;20050;-67
2022/12/13 08:23:59;;;;;;;29.05;9.10;;;;;;;-144.47;89.97;60067.53;5001354;28;20037;-68
2022/12/13 08:26:25;;;;;;;18.35;10.45;;;;;;;-144.47;89.88;60033.69;4993306;28;20026;-64
2022/12/13 08:28:50;;;;;;;33.10;10.77;;;;;;;-144.47;89.86;60033.69;4986956;28;20022;-66
2022/12/13 08:31:15;;;;;;;33.08;11.18;;;;;;;-144.47;89.68;60059.56;4987891;28;20030;-64
2022/12/13 08:33:42;;;;;;;19.15;10.38;;;;;;;-144.47;89.86;60019.75;4988687;28;20025;-67
2022/12/13 08:36:16;;;;;;;16.05;8.65;;;;;;;-144.47;89.58;60005.81;4986262;28;20037;-67
2022/12/13 08:38:42;;;;;;;26.02;10.75;;;;;;;-144.47;89.77;60029.72;4989502;28;20030;-66
2022/12/13 08:41:08;;;;;;;26.63;9.40;;;;;;;-144.47;89.62;60015.78;4989798;28;20057;-67
2022/12/13 08:43:34;;;;;;;16.27;8.68;;;;;;;-144.47;89.46;59995.88;4989037;28;20054;-66
2022/12/13 08:46:00;;;;;;;19.08;9.93;;;;;;;-144.47;89.68;59966.03;4988738;28;20153;-68
2022/12/13 08:48:26;;;;;;;16.90;7.70;;;;;;;-144.47;89.78;59987.91;4989038;28;20045;-68
2022/12/13 08:50:52;;;;;;;21.38;10.25;;;;;;;-144.47;89.46;59966.03;4987450;28;20053;-67
2022/12/13 08:53:18;;;;;;;27.70;10.13;;;;;;;-144.47;89.71;59977.97;4989004;28;20408;-65
2022/12/13 08:55:43;;;;;;;18.77;8.75;;;;;;;-144.47;89.53;59987.91;4988449;28;20033;-65
2022/12/13 08:58:09;;;;;;;27.17;10.65;;;;;;;-144.47;89.73;59964.03;4987076;28;20502;-69
2022/12/13 09:00:36;;;;;;;23.05;10.68;;;;;;;-144.47;89.38;59960.06;4988907;28;20481;-66
2022/12/13 09:03:05;;;;;;;36.55;10.70;;;;;;;-144.47;89.20;59946.13;4989580;28;20026;-67
2022/12/13 09:05:32;;;;;;;17.10;7.78;;;;;;;-144.47;89.22;59946.13;4989260;28;20033;-67
2022/12/13 09:07:58;;;;;;;20.52;9.35;;;;;;;-144.47;89.08;59962.03;4996889;28;20104;-67
2022/12/13 09:10:24;;;;;;;32.55;9.27;;;;;;;-144.47;88.72;59914.28;4990997;28;20105;-64
2022/12/13 09:12:50;;;;;;;28.60;11.05;;;;;;;-144.47;88.44;59942.13;4988623;28;20050;-67
2022/12/13 09:15:15;;;;;;;20.45;11.07;;;;;;;-144.47;88.03;59922.22;4986970;28;20072;-66
2022/12/13 09:17:40;;;;;;;33.67;11.68;;;;;;;-144.47;88.10;59906.31;4988590;28;20026;-68
2022/12/13 09:20:09;;;;;;;27.55;10.38;;;;;;;-144.47;87.29;59884.41;4988865;28;20038;-66
2022/12/13 09:22:35;;;;;;;27.20;10.40;;;;;;;-144.47;87.09;59876.47;4994015;28;20097;-63
2022/12/13 09:25:01;;;;;;;20.35;9.43;;;;;;;-144.47;86.23;59848.59;4995254;28;20113;-68
2022/12/13 09:27:27;;;;;;;19.25;9.00;;;;;;;-144.47;86.02;59862.53;4987218;28;20034;-65
2022/12/13 09:29:53;;;;;;;21.13;9.93;;;;;;;-144.47;85.31;59818.75;5014478;23;20050;-69
2022/12/13 09:32:18;;;;;;;20.55;9.23;;;;;;;-144.47;84.93;59790.88;5011916;28;20025;-68
2022/12/13 09:34:44;;;;;;;26.92;9.48;;;;;;;-144.47;85.04;59814.75;5012491;28;20116;-65
2022/12/13 09:37:12;;;;;;;19.88;9.25;;;;;;;-144.47;84.83;59822.72;5010950;28;20056;-68
2022/12/13 09:39:37;;;;;;;20.90;9.25;;;;;;;-144.47;84.53;59806.78;5012291;28;20025;-68
2022/12/13 09:42:03;;;;;;;22.63;9.15;;;;;;;-144.47;84.52;59794.84;5012086;28;20097;-69
2022/12/13 09:44:34;;;;;;;17.60;6.82;;;;;;;-144.47;83.99;59778.94;5010879;28;20025;-68
2022/12/13 09:47:02;;;;;;;16.92;7.93;;;;;;;-144.47;84.83;59806.78;5011841;28;20146;-69
2022/12/13 09:49:37;;;;;;;23.08;8.50;;;;;;;-144.47;84.58;59828.69;4992720;28;20026;-68
2022/12/13 09:52:05;;;;;;;20.45;9.52;;;;;;;-144.47;87.27;59806.78;5006011;28;20022;-67
2022/12/13 09:54:32;;;;;;;26.92;8.73;;;;;;;-144.47;84.46;59786.91;5011646;28;20030;-68
2022/12/13 09:56:58;;;;;;;22.50;9.90;;;;;;;-144.47;84.51;59784.91;5010995;28;20034;-67
2022/12/13 09:59:30;;;;;;;23.80;10.13;;;;;;;-144.47;83.44;59739.13;5005188;28;20042;-69
2022/12/13 10:02:01;;;;;;;27.90;9.32;;;;;;;-144.47;83.61;59727.19;4992478;28;20026;-68
2022/12/13 10:04:28;;;;;;;21.30;7.72;;;;;;;-144.47;83.13;59757.03;5000802;28;20105;-68
2022/12/13 10:06:53;;;;;;;18.67;8.65;;;;;;;-144.47;83.21;59739.13;4994887;28;20052;-69
2022/12/13 10:09:19;;;;;;;21.88;9.40;;;;;;;-144.47;82.97;59770.97;5000464;28;20548;-68
2022/12/13 10:11:49;;;;;;;20.48;9.43;;;;;;;-144.47;81.81;59737.13;5007856;28;20029;-68
2022/12/13 10:14:30;;;;;;;20.98;8.88;;;;;;;-144.47;81.50;59763.00;4989431;28;20031;-67
2022/12/13 10:17:01;;;;;;;19.15;9.43;;;;;;;-144.47;81.20;59735.16;4981290;28;20029;-68
2022/12/13 10:19:35;;;;;;;24.85;9.88;;;;;;;-144.47;81.15;59715.25;5011441;28;20022;-66
2022/12/13 10:22:03;;;;;;;16.30;7.50;;;;;;;-144.47;80.16;59685.41;5002540;28;20026;-69
2022/12/13 10:24:59;;;;;;;18.58;8.90;;;;;;;-144.47;79.41;59687.38;4997196;28;20518;-70
2022/12/13 10:28:03;;;;;;;22.63;9.10;;;;;;;-144.47;78.98;59669.47;4993269;28;20026;-67
2022/12/13 10:30:40;;;;;;;20.90;8.88;;;;;;;-144.47;78.61;59663.50;4949855;29;20039;-67
2022/12/13 10:33:17;;;;;;;24.90;8.68;;;;;;;-144.47;78.50;59671.47;4998189;28;20035;-68
2022/12/13 10:35:43;;;;;;;19.33;8.65;;;;;;;-144.47;78.32;59639.63;5004086;28;20033;-67
2022/12/13 10:38:09;;;;;;;20.63;9.77;;;;;;;-144.47;78.48;59637.63;5011362;28;20030;-69
2022/12/13 10:40:35;;;;;;;21.67;8.13;;;;;;;-144.47;78.14;59639.63;5011702;28;20018;-66
2022/12/13 10:43:11;;;;;;;19.38;8.00;;;;;;;-144.47;77.17;59603.81;4993165;28;20022;-67
2022/12/13 10:45:37;;;;;;;19.77;6.53;;;;;;;-144.47;76.71;59615.75;5002107;28;20018;-70
2022/12/13 10:48:03;;;;;;;34.13;10.10;;;;;;;-144.47;76.84;59615.75;5011918;28;20021;-67
2022/12/13 10:50:30;;;;;;;21.25;8.50;;;;;;;-144.47;77.08;59611.75;5015414;28;20026;-67
2022/12/13 10:52:57;;;;;;;25.10;9.38;;;;;;;-144.47;76.94;59609.78;5002357;28;20076;-66
2022/12/13 10:55:32;;;;;;;26.20;8.80;;;;;;;-144.47;76.83;59627.69;5002324;28;20558;-67
2022/12/13 10:58:06;;;;;;;20.02;8.93;;;;;;;-144.47;76.50;59571.97;5003869;28;20018;-69
2022/12/13 11:00:43;;;;;;;20.85;7.97;;;;;;;-144.47;76.98;59595.84;5000345;28;20607;-68
2022/12/13 11:03:12;;;;;;;23.40;9.00;;;;;;;-144.47;76.94;59595.84;5006283;28;20021;-68
2022/12/13 11:05:39;;;;;;;;;;;;;;;-144.47;76.47;59599.81;5015199;28;20037;-68
2022/12/13 11:08:19;;;;;;;20.55;8.75;;;;;;;-144.47;76.87;59587.88;5002948;28;19963;-69
2022/12/13 11:10:45;;;;;;;22.85;9.38;;;;;;;-144.47;76.85;59577.94;4982447;28;20023;-67
2022/12/13 11:13:23;;;;;;;19.38;8.40;;;;;;;-144.47;76.61;59597.84;4993830;28;20019;-68
2022/12/13 11:15:54;;;;;;;18.98;9.02;;;;;;;-144.47;76.08;59567.97;4978069;28;20027;-70
2022/12/13 11:18:23;;;;;;;22.83;9.73;;;;;;;-144.47;76.12;59560.03;4992099;28;20045;-69